sensor_id;sensor_type;location;lat;lon;timestamp;pressure;altitude;pressure_sealevel;temperature
21336;BMP180;69435;52.670;13.544;2023-07-29T00:02:28;100155.00;;;23.40
21336;BMP180;69435;52.670;13.544;2023-07-29T00:05:16;100149.00;;;23.30
21336;BMP180;69435;52.670;13.544;2023-07-29T00:08:02;100153.00;;;23.30
21336;BMP180;69435;52.670;13.544;2023-07-29T00:10:48;100142.00;;;23.20
21336;BMP180;69435;52.670;13.544;2023-07-29T00:13:34;100142.00;;;23.10
21336;BMP180;69435;52.670;13.544;2023-07-29T00:16:20;100133.00;;;23.10
21336;BMP180;69435;52.670;13.544;2023-07-29T00:19:09;100137.00;;;23.00
21336;BMP180;69435;52.670;13.544;2023-07-29T00:21:55;100142.00;;;23.00
21336;BMP180;69435;52.670;13.544;2023-07-29T00:24:41;100140.00;;;22.90
21336;BMP180;69435;52.670;13.544;2023-07-29T00:27:27;100148.00;;;22.80
21336;BMP180;69435;52.670;13.544;2023-07-29T00:30:13;100126.00;;;22.80
21336;BMP180;69435;52.670;13.544;2023-07-29T00:32:59;100147.00;;;22.70
21336;BMP180;69435;52.670;13.544;2023-07-29T00:35:45;100158.00;;;22.60
21336;BMP180;69435;52.670;13.544;2023-07-29T00:38:31;100136.00;;;22.60
21336;BMP180;69435;52.670;13.544;2023-07-29T00:41:17;100147.00;;;22.50
21336;BMP180;69435;52.670;13.544;2023-07-29T00:44:04;100146.00;;;22.50
21336;BMP180;69435;52.670;13.544;2023-07-29T00:46:52;100141.00;;;22.50
21336;BMP180;69435;52.670;13.544;2023-07-29T00:49:39;100130.00;;;22.40
21336;BMP180;69435;52.670;13.544;2023-07-29T00:52:25;100119.00;;;22.30
21336;BMP180;69435;52.670;13.544;2023-07-29T00:55:11;100136.00;;;22.30
21336;BMP180;69435;52.670;13.544;2023-07-29T00:57:58;100139.00;;;22.20
21336;BMP180;69435;52.670;13.544;2023-07-29T01:00:44;100133.00;;;22.10
21336;BMP180;69435;52.670;13.544;2023-07-29T01:03:30;100122.00;;;22.10
21336;BMP180;69435;52.670;13.544;2023-07-29T01:09:53;100151.00;;;22.10
21336;BMP180;69435;52.670;13.544;2023-07-29T01:12:56;100117.00;;;22.00
21336;BMP180;69435;52.670;13.544;2023-07-29T01:15:58;100144.00;;;22.00
21336;BMP180;69435;52.670;13.544;2023-07-29T01:18:47;100133.00;;;21.90
21336;BMP180;69435;52.670;13.544;2023-07-29T01:21:36;100120.00;;;21.90
21336;BMP180;69435;52.670;13.544;2023-07-29T01:24:23;100106.00;;;21.90
21336;BMP180;69435;52.670;13.544;2023-07-29T01:27:09;100126.00;;;21.90
21336;BMP180;69435;52.670;13.544;2023-07-29T01:29:57;100113.00;;;21.90
21336;BMP180;69435;52.670;13.544;2023-07-29T01:33:00;100131.00;;;22.00
21336;BMP180;69435;52.670;13.544;2023-07-29T01:35:57;100095.00;;;21.90
21336;BMP180;69435;52.670;13.544;2023-07-29T01:38:44;100105.00;;;21.90
21336;BMP180;69435;52.670;13.544;2023-07-29T01:41:31;100108.00;;;21.80
21336;BMP180;69435;52.670;13.544;2023-07-29T01:44:18;100118.00;;;21.70
21336;BMP180;69435;52.670;13.544;2023-07-29T01:47:05;100117.00;;;21.80
21336;BMP180;69435;52.670;13.544;2023-07-29T01:49:52;100120.00;;;21.80
21336;BMP180;69435;52.670;13.544;2023-07-29T01:52:38;100087.00;;;21.80
21336;BMP180;69435;52.670;13.544;2023-07-29T01:55:24;100128.00;;;21.80
21336;BMP180;69435;52.670;13.544;2023-07-29T01:58:11;100127.00;;;21.80
21336;BMP180;69435;52.670;13.544;2023-07-29T02:00:57;100114.00;;;21.80
21336;BMP180;69435;52.670;13.544;2023-07-29T02:03:43;100121.00;;;21.80
21336;BMP180;69435;52.670;13.544;2023-07-29T02:06:29;100134.00;;;21.70
21336;BMP180;69435;52.670;13.544;2023-07-29T02:09:15;100128.00;;;21.70
21336;BMP180;69435;52.670;13.544;2023-07-29T02:12:01;100119.00;;;21.70
21336;BMP180;69435;52.670;13.544;2023-07-29T02:14:47;100117.00;;;21.70
21336;BMP180;69435;52.670;13.544;2023-07-29T02:17:34;100122.00;;;21.70
21336;BMP180;69435;52.670;13.544;2023-07-29T02:20:20;100109.00;;;21.60
21336;BMP180;69435;52.670;13.544;2023-07-29T02:23:06;100111.00;;;21.60
21336;BMP180;69435;52.670;13.544;2023-07-29T02:25:51;100117.00;;;21.60
21336;BMP180;69435;52.670;13.544;2023-07-29T02:28:37;100119.00;;;21.60
21336;BMP180;69435;52.670;13.544;2023-07-29T02:31:25;100123.00;;;21.60
21336;BMP180;69435;52.670;13.544;2023-07-29T02:34:10;100103.00;;;21.60
21336;BMP180;69435;52.670;13.544;2023-07-29T02:36:56;100099.00;;;21.60
21336;BMP180;69435;52.670;13.544;2023-07-29T02:39:42;100124.00;;;21.60
21336;BMP180;69435;52.670;13.544;2023-07-29T02:42:28;100119.00;;;21.60
21336;BMP180;69435;52.670;13.544;2023-07-29T02:45:14;100120.00;;;21.60
21336;BMP180;69435;52.670;13.544;2023-07-29T02:48:00;100136.00;;;21.60
21336;BMP180;69435;52.670;13.544;2023-07-29T02:50:46;100121.00;;;21.50
21336;BMP180;69435;52.670;13.544;2023-07-29T02:53:32;100120.00;;;21.50
21336;BMP180;69435;52.670;13.544;2023-07-29T02:56:18;100135.00;;;21.50
21336;BMP180;69435;52.670;13.544;2023-07-29T02:59:04;100122.00;;;21.50
21336;BMP180;69435;52.670;13.544;2023-07-29T03:01:50;100134.00;;;21.50
21336;BMP180;69435;52.670;13.544;2023-07-29T03:04:37;100133.00;;;21.50
21336;BMP180;69435;52.670;13.544;2023-07-29T03:07:23;100135.00;;;21.50
21336;BMP180;69435;52.670;13.544;2023-07-29T03:10:10;100081.00;;;21.40
21336;BMP180;69435;52.670;13.544;2023-07-29T03:12:56;100100.00;;;21.40
21336;BMP180;69435;52.670;13.544;2023-07-29T03:15:42;100091.00;;;21.40
21336;BMP180;69435;52.670;13.544;2023-07-29T03:18:28;100097.00;;;21.40
21336;BMP180;69435;52.670;13.544;2023-07-29T03:21:14;100103.00;;;21.40
21336;BMP180;69435;52.670;13.544;2023-07-29T03:24:00;100108.00;;;21.40
21336;BMP180;69435;52.670;13.544;2023-07-29T03:26:47;100111.00;;;21.30
21336;BMP180;69435;52.670;13.544;2023-07-29T03:29:33;100105.00;;;21.30
21336;BMP180;69435;52.670;13.544;2023-07-29T03:32:19;100098.00;;;21.30
21336;BMP180;69435;52.670;13.544;2023-07-29T03:35:05;100094.00;;;21.30
21336;BMP180;69435;52.670;13.544;2023-07-29T03:37:51;100104.00;;;21.30
21336;BMP180;69435;52.670;13.544;2023-07-29T03:40:39;100120.00;;;21.30
21336;BMP180;69435;52.670;13.544;2023-07-29T03:43:25;100119.00;;;21.30
21336;BMP180;69435;52.670;13.544;2023-07-29T03:46:11;100097.00;;;21.20
21336;BMP180;69435;52.670;13.544;2023-07-29T03:48:57;100106.00;;;21.30
21336;BMP180;69435;52.670;13.544;2023-07-29T03:51:43;100112.00;;;21.30
21336;BMP180;69435;52.670;13.544;2023-07-29T03:54:29;100101.00;;;21.30
21336;BMP180;69435;52.670;13.544;2023-07-29T03:57:15;100102.00;;;21.40
21336;BMP180;69435;52.670;13.544;2023-07-29T04:00:01;100101.00;;;21.30
21336;BMP180;69435;52.670;13.544;2023-07-29T04:02:47;100084.00;;;21.50
21336;BMP180;69435;52.670;13.544;2023-07-29T04:05:34;100110.00;;;21.60
21336;BMP180;69435;52.670;13.544;2023-07-29T04:08:20;100087.00;;;21.60
21336;BMP180;69435;52.670;13.544;2023-07-29T04:11:06;100110.00;;;21.60
21336;BMP180;69435;52.670;13.544;2023-07-29T04:13:52;100098.00;;;21.60
21336;BMP180;69435;52.670;13.544;2023-07-29T04:16:39;100110.00;;;21.70
21336;BMP180;69435;52.670;13.544;2023-07-29T04:19:25;100106.00;;;21.70
21336;BMP180;69435;52.670;13.544;2023-07-29T04:22:11;100095.00;;;21.70
21336;BMP180;69435;52.670;13.544;2023-07-29T04:24:57;100103.00;;;21.70
21336;BMP180;69435;52.670;13.544;2023-07-29T04:27:43;100104.00;;;21.70
21336;BMP180;69435;52.670;13.544;2023-07-29T04:30:29;100108.00;;;21.80
21336;BMP180;69435;52.670;13.544;2023-07-29T04:33:15;100110.00;;;21.90
21336;BMP180;69435;52.670;13.544;2023-07-29T04:36:00;100104.00;;;21.90
21336;BMP180;69435;52.670;13.544;2023-07-29T04:38:46;100094.00;;;21.90
21336;BMP180;69435;52.670;13.544;2023-07-29T04:41:32;100112.00;;;22.00
21336;BMP180;69435;52.670;13.544;2023-07-29T04:44:18;100105.00;;;22.10
21336;BMP180;69435;52.670;13.544;2023-07-29T04:47:04;100098.00;;;22.10
21336;BMP180;69435;52.670;13.544;2023-07-29T04:49:50;100102.00;;;22.20
21336;BMP180;69435;52.670;13.544;2023-07-29T04:52:36;100107.00;;;22.20
21336;BMP180;69435;52.670;13.544;2023-07-29T04:55:22;100107.00;;;22.30
21336;BMP180;69435;52.670;13.544;2023-07-29T04:58:09;100113.00;;;22.40
21336;BMP180;69435;52.670;13.544;2023-07-29T05:00:55;100124.00;;;22.50
21336;BMP180;69435;52.670;13.544;2023-07-29T05:03:41;100117.00;;;22.50
21336;BMP180;69435;52.670;13.544;2023-07-29T05:06:27;100122.00;;;22.60
21336;BMP180;69435;52.670;13.544;2023-07-29T05:09:19;100098.00;;;22.80
21336;BMP180;69435;52.670;13.544;2023-07-29T05:12:08;100109.00;;;22.80
21336;BMP180;69435;52.670;13.544;2023-07-29T05:14:54;100098.00;;;22.90
21336;BMP180;69435;52.670;13.544;2023-07-29T05:17:40;100093.00;;;23.00
21336;BMP180;69435;52.670;13.544;2023-07-29T05:20:26;100096.00;;;23.10
21336;BMP180;69435;52.670;13.544;2023-07-29T05:23:12;100070.00;;;23.20
21336;BMP180;69435;52.670;13.544;2023-07-29T05:25:58;100092.00;;;23.40
21336;BMP180;69435;52.670;13.544;2023-07-29T05:28:44;100079.00;;;23.40
21336;BMP180;69435;52.670;13.544;2023-07-29T05:31:30;100086.00;;;23.50
21336;BMP180;69435;52.670;13.544;2023-07-29T05:34:16;100089.00;;;23.60
21336;BMP180;69435;52.670;13.544;2023-07-29T05:37:02;100078.00;;;23.60
21336;BMP180;69435;52.670;13.544;2023-07-29T05:39:48;100066.00;;;23.70
21336;BMP180;69435;52.670;13.544;2023-07-29T05:42:34;100096.00;;;23.80
21336;BMP180;69435;52.670;13.544;2023-07-29T05:45:20;100092.00;;;23.80
21336;BMP180;69435;52.670;13.544;2023-07-29T05:48:06;100063.00;;;23.90
21336;BMP180;69435;52.670;13.544;2023-07-29T05:50:52;100087.00;;;24.00
21336;BMP180;69435;52.670;13.544;2023-07-29T05:53:38;100088.00;;;24.10
21336;BMP180;69435;52.670;13.544;2023-07-29T05:56:24;100099.00;;;24.10
21336;BMP180;69435;52.670;13.544;2023-07-29T05:59:10;100074.00;;;24.20
21336;BMP180;69435;52.670;13.544;2023-07-29T06:01:56;100070.00;;;24.30
21336;BMP180;69435;52.670;13.544;2023-07-29T06:04:42;100081.00;;;24.30
21336;BMP180;69435;52.670;13.544;2023-07-29T06:07:28;100068.00;;;24.40
21336;BMP180;69435;52.670;13.544;2023-07-29T06:10:16;100076.00;;;24.40
21336;BMP180;69435;52.670;13.544;2023-07-29T06:13:05;100067.00;;;24.50
21336;BMP180;69435;52.670;13.544;2023-07-29T06:15:52;100070.00;;;24.60
21336;BMP180;69435;52.670;13.544;2023-07-29T06:18:37;100064.00;;;24.60
21336;BMP180;69435;52.670;13.544;2023-07-29T06:21:23;100070.00;;;24.70
21336;BMP180;69435;52.670;13.544;2023-07-29T06:24:10;100061.00;;;24.80
21336;BMP180;69435;52.670;13.544;2023-07-29T06:26:58;100065.00;;;24.90
21336;BMP180;69435;52.670;13.544;2023-07-29T06:29:44;100054.00;;;25.00
21336;BMP180;69435;52.670;13.544;2023-07-29T06:32:31;100069.00;;;25.00
21336;BMP180;69435;52.670;13.544;2023-07-29T06:35:17;100046.00;;;25.10
21336;BMP180;69435;52.670;13.544;2023-07-29T06:38:03;100063.00;;;25.00
21336;BMP180;69435;52.670;13.544;2023-07-29T06:40:49;100055.00;;;25.30
21336;BMP180;69435;52.670;13.544;2023-07-29T06:43:35;100059.00;;;25.40
21336;BMP180;69435;52.670;13.544;2023-07-29T06:46:21;100062.00;;;25.60
21336;BMP180;69435;52.670;13.544;2023-07-29T06:49:07;100055.00;;;25.70
21336;BMP180;69435;52.670;13.544;2023-07-29T06:51:53;100074.00;;;25.90
21336;BMP180;69435;52.670;13.544;2023-07-29T06:54:39;100064.00;;;26.20
21336;BMP180;69435;52.670;13.544;2023-07-29T06:57:25;100051.00;;;26.40
21336;BMP180;69435;52.670;13.544;2023-07-29T07:00:11;100067.00;;;26.70
21336;BMP180;69435;52.670;13.544;2023-07-29T07:02:57;100054.00;;;26.80
21336;BMP180;69435;52.670;13.544;2023-07-29T07:05:43;100062.00;;;26.90
21336;BMP180;69435;52.670;13.544;2023-07-29T07:08:29;100050.00;;;27.10
21336;BMP180;69435;52.670;13.544;2023-07-29T07:11:18;100055.00;;;27.20
21336;BMP180;69435;52.670;13.544;2023-07-29T07:14:04;100060.00;;;27.40
21336;BMP180;69435;52.670;13.544;2023-07-29T07:16:50;100060.00;;;27.60
21336;BMP180;69435;52.670;13.544;2023-07-29T07:19:36;100061.00;;;27.70
21336;BMP180;69435;52.670;13.544;2023-07-29T07:22:22;100061.00;;;27.90
21336;BMP180;69435;52.670;13.544;2023-07-29T07:25:08;100061.00;;;28.30
21336;BMP180;69435;52.670;13.544;2023-07-29T07:27:54;100042.00;;;28.70
21336;BMP180;69435;52.670;13.544;2023-07-29T07:30:41;100061.00;;;29.20
21336;BMP180;69435;52.670;13.544;2023-07-29T07:33:27;100053.00;;;29.70
21336;BMP180;69435;52.670;13.544;2023-07-29T07:36:13;100069.00;;;30.20
21336;BMP180;69435;52.670;13.544;2023-07-29T07:38:59;100083.00;;;30.50
21336;BMP180;69435;52.670;13.544;2023-07-29T07:41:45;100069.00;;;30.40
21336;BMP180;69435;52.670;13.544;2023-07-29T07:44:31;100061.00;;;30.40
21336;BMP180;69435;52.670;13.544;2023-07-29T07:47:17;100060.00;;;30.50
21336;BMP180;69435;52.670;13.544;2023-07-29T07:50:03;100063.00;;;30.60
21336;BMP180;69435;52.670;13.544;2023-07-29T07:52:49;100059.00;;;30.40
21336;BMP180;69435;52.670;13.544;2023-07-29T07:55:36;100036.00;;;30.30
21336;BMP180;69435;52.670;13.544;2023-07-29T07:58:22;100043.00;;;30.10
21336;BMP180;69435;52.670;13.544;2023-07-29T08:01:09;100038.00;;;30.10
21336;BMP180;69435;52.670;13.544;2023-07-29T08:03:55;100050.00;;;30.00
21336;BMP180;69435;52.670;13.544;2023-07-29T08:06:40;100035.00;;;29.90
21336;BMP180;69435;52.670;13.544;2023-07-29T08:09:26;100038.00;;;29.90
21336;BMP180;69435;52.670;13.544;2023-07-29T08:12:12;100036.00;;;30.00
21336;BMP180;69435;52.670;13.544;2023-07-29T08:15:00;100039.00;;;30.30
21336;BMP180;69435;52.670;13.544;2023-07-29T08:17:46;100023.00;;;31.00
21336;BMP180;69435;52.670;13.544;2023-07-29T08:20:32;100030.00;;;31.60
21336;BMP180;69435;52.670;13.544;2023-07-29T08:23:18;100040.00;;;32.20
21336;BMP180;69435;52.670;13.544;2023-07-29T08:26:05;100037.00;;;32.70
21336;BMP180;69435;52.670;13.544;2023-07-29T08:28:51;100034.00;;;33.20
21336;BMP180;69435;52.670;13.544;2023-07-29T08:31:38;100038.00;;;33.40
21336;BMP180;69435;52.670;13.544;2023-07-29T08:34:24;100025.00;;;33.60
21336;BMP180;69435;52.670;13.544;2023-07-29T08:37:11;100033.00;;;33.90
21336;BMP180;69435;52.670;13.544;2023-07-29T08:39:57;100036.00;;;34.00
21336;BMP180;69435;52.670;13.544;2023-07-29T08:42:47;100026.00;;;34.00
21336;BMP180;69435;52.670;13.544;2023-07-29T08:45:36;100041.00;;;33.70
21336;BMP180;69435;52.670;13.544;2023-07-29T08:48:43;100037.00;;;33.40
21336;BMP180;69435;52.670;13.544;2023-07-29T08:51:31;100047.00;;;33.20
21336;BMP180;69435;52.670;13.544;2023-07-29T08:54:17;100048.00;;;33.00
21336;BMP180;69435;52.670;13.544;2023-07-29T08:57:06;100036.00;;;33.00
21336;BMP180;69435;52.670;13.544;2023-07-29T08:59:52;100027.00;;;33.00
21336;BMP180;69435;52.670;13.544;2023-07-29T09:02:38;100037.00;;;33.10
21336;BMP180;69435;52.670;13.544;2023-07-29T09:05:24;100000.00;;;33.20
21336;BMP180;69435;52.670;13.544;2023-07-29T09:08:10;100026.00;;;33.20
21336;BMP180;69435;52.670;13.544;2023-07-29T09:10:56;100017.00;;;33.40
21336;BMP180;69435;52.670;13.544;2023-07-29T09:13:44;100040.00;;;33.60
21336;BMP180;69435;52.670;13.544;2023-07-29T09:16:31;100042.00;;;33.80
21336;BMP180;69435;52.670;13.544;2023-07-29T09:19:18;100028.00;;;33.80
21336;BMP180;69435;52.670;13.544;2023-07-29T09:22:04;100038.00;;;33.80
21336;BMP180;69435;52.670;13.544;2023-07-29T09:24:51;100024.00;;;33.50
21336;BMP180;69435;52.670;13.544;2023-07-29T09:27:37;100026.00;;;33.20
21336;BMP180;69435;52.670;13.544;2023-07-29T09:30:25;100029.00;;;32.80
21336;BMP180;69435;52.670;13.544;2023-07-29T09:33:12;100019.00;;;32.60
21336;BMP180;69435;52.670;13.544;2023-07-29T09:35:58;100002.00;;;32.60
21336;BMP180;69435;52.670;13.544;2023-07-29T09:38:44;100008.00;;;32.90
21336;BMP180;69435;52.670;13.544;2023-07-29T09:41:31;100000.00;;;33.30
21336;BMP180;69435;52.670;13.544;2023-07-29T09:44:17;99987.00;;;33.70
21336;BMP180;69435;52.670;13.544;2023-07-29T09:47:03;99997.00;;;33.90
21336;BMP180;69435;52.670;13.544;2023-07-29T09:49:51;100004.00;;;34.10
21336;BMP180;69435;52.670;13.544;2023-07-29T09:52:38;100007.00;;;34.30
21336;BMP180;69435;52.670;13.544;2023-07-29T09:55:25;99999.00;;;34.40
21336;BMP180;69435;52.670;13.544;2023-07-29T09:58:12;100004.00;;;34.40
21336;BMP180;69435;52.670;13.544;2023-07-29T10:00:58;99989.00;;;34.30
21336;BMP180;69435;52.670;13.544;2023-07-29T10:03:44;99981.00;;;34.10
21336;BMP180;69435;52.670;13.544;2023-07-29T10:06:34;99991.00;;;34.00
21336;BMP180;69435;52.670;13.544;2023-07-29T10:09:21;99989.00;;;33.70
21336;BMP180;69435;52.670;13.544;2023-07-29T10:12:07;99977.00;;;33.60
21336;BMP180;69435;52.670;13.544;2023-07-29T10:14:58;99968.00;;;33.40
21336;BMP180;69435;52.670;13.544;2023-07-29T10:17:46;99966.00;;;33.20
21336;BMP180;69435;52.670;13.544;2023-07-29T10:20:33;99965.00;;;33.00
21336;BMP180;69435;52.670;13.544;2023-07-29T10:23:22;99974.00;;;32.80
21336;BMP180;69435;52.670;13.544;2023-07-29T10:26:11;99967.00;;;32.80
21336;BMP180;69435;52.670;13.544;2023-07-29T10:29:00;99969.00;;;32.80
21336;BMP180;69435;52.670;13.544;2023-07-29T10:32:01;99965.00;;;32.90
21336;BMP180;69435;52.670;13.544;2023-07-29T10:34:47;99968.00;;;33.00
21336;BMP180;69435;52.670;13.544;2023-07-29T10:37:33;99961.00;;;33.20
21336;BMP180;69435;52.670;13.544;2023-07-29T10:40:20;99949.00;;;33.20
21336;BMP180;69435;52.670;13.544;2023-07-29T10:43:13;99956.00;;;33.20
21336;BMP180;69435;52.670;13.544;2023-07-29T10:46:23;99955.00;;;33.00
21336;BMP180;69435;52.670;13.544;2023-07-29T10:49:09;99951.00;;;32.50
21336;BMP180;69435;52.670;13.544;2023-07-29T10:51:55;99926.00;;;32.20
21336;BMP180;69435;52.670;13.544;2023-07-29T10:54:48;99934.00;;;32.00
21336;BMP180;69435;52.670;13.544;2023-07-29T10:57:37;99937.00;;;31.70
21336;BMP180;69435;52.670;13.544;2023-07-29T11:00:31;99948.00;;;31.50
21336;BMP180;69435;52.670;13.544;2023-07-29T11:03:17;99920.00;;;31.20
21336;BMP180;69435;52.670;13.544;2023-07-29T11:06:06;99898.00;;;31.10
21336;BMP180;69435;52.670;13.544;2023-07-29T11:08:53;99892.00;;;31.00
21336;BMP180;69435;52.670;13.544;2023-07-29T11:11:39;99915.00;;;30.90
21336;BMP180;69435;52.670;13.544;2023-07-29T11:14:25;99913.00;;;30.90
21336;BMP180;69435;52.670;13.544;2023-07-29T11:17:13;99906.00;;;30.90
21336;BMP180;69435;52.670;13.544;2023-07-29T11:20:01;99919.00;;;30.80
21336;BMP180;69435;52.670;13.544;2023-07-29T11:22:49;99929.00;;;30.60
21336;BMP180;69435;52.670;13.544;2023-07-29T11:25:35;99974.00;;;30.10
21336;BMP180;69435;52.670;13.544;2023-07-29T11:28:22;99959.00;;;29.40
21336;BMP180;69435;52.670;13.544;2023-07-29T11:31:08;99961.00;;;28.10
21336;BMP180;69435;52.670;13.544;2023-07-29T11:33:54;99934.00;;;27.10
21336;BMP180;69435;52.670;13.544;2023-07-29T11:36:45;99975.00;;;26.20
21336;BMP180;69435;52.670;13.544;2023-07-29T11:39:31;100032.00;;;25.30
21336;BMP180;69435;52.670;13.544;2023-07-29T11:42:18;99991.00;;;24.70
21336;BMP180;69435;52.670;13.544;2023-07-29T11:45:05;99972.00;;;24.30
21336;BMP180;69435;52.670;13.544;2023-07-29T11:47:52;99961.00;;;24.10
21336;BMP180;69435;52.670;13.544;2023-07-29T11:50:38;99968.00;;;24.00
21336;BMP180;69435;52.670;13.544;2023-07-29T11:53:28;99971.00;;;23.90
21336;BMP180;69435;52.670;13.544;2023-07-29T11:56:15;99972.00;;;23.90
21336;BMP180;69435;52.670;13.544;2023-07-29T11:59:01;99959.00;;;23.90
21336;BMP180;69435;52.670;13.544;2023-07-29T12:01:48;99970.00;;;24.00
21336;BMP180;69435;52.670;13.544;2023-07-29T12:04:35;99972.00;;;24.10
21336;BMP180;69435;52.670;13.544;2023-07-29T12:07:21;99968.00;;;24.20
21336;BMP180;69435;52.670;13.544;2023-07-29T12:10:07;99942.00;;;24.40
21336;BMP180;69435;52.670;13.544;2023-07-29T12:12:54;99940.00;;;24.60
21336;BMP180;69435;52.670;13.544;2023-07-29T12:15:40;99958.00;;;24.70
21336;BMP180;69435;52.670;13.544;2023-07-29T12:18:33;99949.00;;;25.00
21336;BMP180;69435;52.670;13.544;2023-07-29T12:21:19;99957.00;;;25.10
21336;BMP180;69435;52.670;13.544;2023-07-29T12:24:05;99963.00;;;25.20
21336;BMP180;69435;52.670;13.544;2023-07-29T12:26:52;99946.00;;;25.20
21336;BMP180;69435;52.670;13.544;2023-07-29T12:29:42;99937.00;;;25.40
21336;BMP180;69435;52.670;13.544;2023-07-29T12:32:29;99943.00;;;25.40
21336;BMP180;69435;52.670;13.544;2023-07-29T12:35:16;99944.00;;;25.50
21336;BMP180;69435;52.670;13.544;2023-07-29T12:38:02;99937.00;;;25.70
21336;BMP180;69435;52.670;13.544;2023-07-29T12:40:48;99946.00;;;25.90
21336;BMP180;69435;52.670;13.544;2023-07-29T12:43:34;99944.00;;;26.00
21336;BMP180;69435;52.670;13.544;2023-07-29T12:46:21;99944.00;;;26.00
21336;BMP180;69435;52.670;13.544;2023-07-29T12:49:07;99935.00;;;26.10
21336;BMP180;69435;52.670;13.544;2023-07-29T12:51:53;99947.00;;;26.10
21336;BMP180;69435;52.670;13.544;2023-07-29T12:54:40;99942.00;;;26.20
21336;BMP180;69435;52.670;13.544;2023-07-29T12:57:26;99929.00;;;26.30
21336;BMP180;69435;52.670;13.544;2023-07-29T13:00:12;99938.00;;;26.40
21336;BMP180;69435;52.670;13.544;2023-07-29T13:02:58;99928.00;;;26.50
21336;BMP180;69435;52.670;13.544;2023-07-29T13:05:44;99913.00;;;26.70
21336;BMP180;69435;52.670;13.544;2023-07-29T13:08:30;99923.00;;;27.00
21336;BMP180;69435;52.670;13.544;2023-07-29T13:11:17;99905.00;;;27.40
21336;BMP180;69435;52.670;13.544;2023-07-29T13:14:04;99923.00;;;27.80
21336;BMP180;69435;52.670;13.544;2023-07-29T13:16:50;99921.00;;;28.20
21336;BMP180;69435;52.670;13.544;2023-07-29T13:19:36;99922.00;;;28.40
21336;BMP180;69435;52.670;13.544;2023-07-29T13:22:22;99934.00;;;28.60
21336;BMP180;69435;52.670;13.544;2023-07-29T13:25:08;99939.00;;;28.80
21336;BMP180;69435;52.670;13.544;2023-07-29T13:27:54;99949.00;;;29.10
21336;BMP180;69435;52.670;13.544;2023-07-29T13:30:40;99938.00;;;29.30
21336;BMP180;69435;52.670;13.544;2023-07-29T13:33:26;99937.00;;;29.50
21336;BMP180;69435;52.670;13.544;2023-07-29T13:36:12;99937.00;;;29.50
21336;BMP180;69435;52.670;13.544;2023-07-29T13:38:58;99941.00;;;29.50
21336;BMP180;69435;52.670;13.544;2023-07-29T13:41:44;99944.00;;;29.50
21336;BMP180;69435;52.670;13.544;2023-07-29T13:44:30;99940.00;;;29.50
21336;BMP180;69435;52.670;13.544;2023-07-29T13:47:16;99942.00;;;29.40
21336;BMP180;69435;52.670;13.544;2023-07-29T13:50:02;99924.00;;;29.30
21336;BMP180;69435;52.670;13.544;2023-07-29T13:52:49;99931.00;;;29.20
21336;BMP180;69435;52.670;13.544;2023-07-29T13:55:35;99924.00;;;29.30
21336;BMP180;69435;52.670;13.544;2023-07-29T13:58:21;99881.00;;;29.40
21336;BMP180;69435;52.670;13.544;2023-07-29T14:01:07;99908.00;;;29.60
21336;BMP180;69435;52.670;13.544;2023-07-29T14:03:53;99906.00;;;29.70
21336;BMP180;69435;52.670;13.544;2023-07-29T14:06:38;99905.00;;;29.80
21336;BMP180;69435;52.670;13.544;2023-07-29T14:09:26;99888.00;;;30.00
21336;BMP180;69435;52.670;13.544;2023-07-29T14:12:12;99890.00;;;30.20
21336;BMP180;69435;52.670;13.544;2023-07-29T14:15:00;99899.00;;;30.40
21336;BMP180;69435;52.670;13.544;2023-07-29T14:17:46;99890.00;;;30.60
21336;BMP180;69435;52.670;13.544;2023-07-29T14:20:33;99892.00;;;30.70
21336;BMP180;69435;52.670;13.544;2023-07-29T14:23:19;99896.00;;;30.90
21336;BMP180;69435;52.670;13.544;2023-07-29T14:26:05;99905.00;;;31.10
21336;BMP180;69435;52.670;13.544;2023-07-29T14:28:51;99900.00;;;31.10
21336;BMP180;69435;52.670;13.544;2023-07-29T14:31:37;99905.00;;;31.00
21336;BMP180;69435;52.670;13.544;2023-07-29T14:34:23;99909.00;;;30.90
21336;BMP180;69435;52.670;13.544;2023-07-29T14:37:09;99896.00;;;30.70
21336;BMP180;69435;52.670;13.544;2023-07-29T14:39:55;99888.00;;;30.60
21336;BMP180;69435;52.670;13.544;2023-07-29T14:42:40;99892.00;;;30.40
21336;BMP180;69435;52.670;13.544;2023-07-29T14:45:27;99873.00;;;30.20
21336;BMP180;69435;52.670;13.544;2023-07-29T14:48:13;99874.00;;;30.00
21336;BMP180;69435;52.670;13.544;2023-07-29T14:50:58;99895.00;;;30.00
21336;BMP180;69435;52.670;13.544;2023-07-29T14:53:44;99902.00;;;29.90
21336;BMP180;69435;52.670;13.544;2023-07-29T14:56:30;99917.00;;;29.90
21336;BMP180;69435;52.670;13.544;2023-07-29T14:59:16;99908.00;;;29.80
21336;BMP180;69435;52.670;13.544;2023-07-29T15:02:03;99920.00;;;29.70
21336;BMP180;69435;52.670;13.544;2023-07-29T15:04:49;99919.00;;;29.60
21336;BMP180;69435;52.670;13.544;2023-07-29T15:07:35;99913.00;;;29.50
21336;BMP180;69435;52.670;13.544;2023-07-29T15:10:22;99908.00;;;29.40
21336;BMP180;69435;52.670;13.544;2023-07-29T15:13:08;99923.00;;;29.40
21336;BMP180;69435;52.670;13.544;2023-07-29T15:15:54;99909.00;;;29.30
21336;BMP180;69435;52.670;13.544;2023-07-29T15:18:40;99890.00;;;29.40
21336;BMP180;69435;52.670;13.544;2023-07-29T15:21:26;99919.00;;;29.30
21336;BMP180;69435;52.670;13.544;2023-07-29T15:24:13;99932.00;;;29.30
21336;BMP180;69435;52.670;13.544;2023-07-29T15:26:59;99922.00;;;29.20
21336;BMP180;69435;52.670;13.544;2023-07-29T15:29:45;99916.00;;;29.10
21336;BMP180;69435;52.670;13.544;2023-07-29T15:32:31;99906.00;;;29.00
21336;BMP180;69435;52.670;13.544;2023-07-29T15:35:17;99919.00;;;29.00
21336;BMP180;69435;52.670;13.544;2023-07-29T15:38:03;99921.00;;;28.90
21336;BMP180;69435;52.670;13.544;2023-07-29T15:40:49;99904.00;;;28.80
21336;BMP180;69435;52.670;13.544;2023-07-29T15:43:36;99923.00;;;28.70